createdAt,value
2018-05-17T00:00:33.481Z,10.10
2018-05-17T00:02:59.694Z,8.82
2018-05-17T00:05:25.874Z,9.65
2018-05-17T00:07:53.176Z,9.07
2018-05-17T00:10:19.371Z,10.45
2018-05-17T00:12:45.657Z,8.40
2018-05-17T00:15:11.779Z,8.90
2018-05-17T00:17:37.990Z,14.10
2018-05-17T00:20:04.191Z,11.95
2018-05-17T00:22:30.368Z,8.98
2018-05-17T00:24:56.583Z,9.48
2018-05-17T00:27:22.738Z,9.18
2018-05-17T00:29:48.905Z,10.18
2018-05-17T00:32:16.194Z,12.27
2018-05-17T00:34:42.367Z,10.82
2018-05-17T00:37:08.553Z,9.88
2018-05-17T00:39:35.860Z,10.27
2018-05-17T00:42:02.023Z,12.10
2018-05-17T00:44:28.218Z,11.57
2018-05-17T00:46:54.407Z,9.77
2018-05-17T00:49:22.312Z,10.80
2018-05-17T00:51:50.018Z,14.18
2018-05-17T00:54:16.235Z,10.65
2018-05-17T00:56:44.134Z,13.48
2018-05-17T00:59:10.355Z,13.23
2018-05-17T01:01:37.664Z,12.60
2018-05-17T01:04:03.903Z,17.30
2018-05-17T01:06:30.087Z,11.85
2018-05-17T01:08:56.280Z,11.10
2018-05-17T01:11:22.490Z,11.60
2018-05-17T01:13:50.172Z,12.43
2018-05-17T01:16:17.459Z,11.93
2018-05-17T01:18:43.660Z,17.00
2018-05-17T01:21:10.966Z,14.45
2018-05-17T01:23:37.159Z,26.92
2018-05-17T01:26:03.329Z,15.55
2018-05-17T01:28:31.213Z,18.02
2018-05-17T01:30:59.124Z,19.10
2018-05-17T01:33:25.320Z,15.40
2018-05-17T01:35:52.619Z,17.50
2018-05-17T01:38:25.825Z,16.37
2018-05-17T01:40:52.025Z,18.02
2018-05-17T01:43:18.236Z,15.95
2018-05-17T01:45:44.408Z,24.08
2018-05-17T01:48:11.712Z,23.12
2018-05-17T01:50:37.951Z,24.48
2018-05-17T01:53:04.428Z,18.83
2018-05-17T01:55:30.934Z,24.58
2018-05-17T01:57:57.401Z,21.37
2018-05-17T02:00:23.642Z,23.70
2018-05-17T02:02:49.832Z,25.98
2018-05-17T02:05:16.047Z,23.08
2018-05-17T02:07:42.233Z,29.90
2018-05-17T02:10:09.527Z,26.50
2018-05-17T02:12:35.725Z,25.85
2018-05-17T02:15:03.420Z,23.23
2018-05-17T02:17:29.647Z,29.17
2018-05-17T02:19:56.922Z,31.70
2018-05-17T02:22:24.213Z,29.95
2018-05-17T02:24:50.401Z,25.53
2018-05-17T02:27:16.586Z,31.33
2018-05-17T02:29:42.774Z,33.45
2018-05-17T02:32:08.950Z,26.75
2018-05-17T02:34:36.255Z,29.57
2018-05-17T02:37:02.493Z,24.92
2018-05-17T02:39:28.687Z,22.98
2018-05-17T02:41:54.890Z,29.65
2018-05-17T02:44:21.060Z,21.67
2018-05-17T02:46:47.249Z,27.07
2018-05-17T02:49:13.477Z,26.45
2018-05-17T02:51:41.366Z,26.23
2018-05-17T02:54:07.570Z,27.33
2018-05-17T02:56:34.038Z,28.90
2018-05-17T02:59:02.058Z,27.95
2018-05-17T03:01:28.578Z,24.80
2018-05-17T03:03:55.032Z,26.90
2018-05-17T03:06:21.555Z,22.50
2018-05-17T03:08:49.147Z,30.60
2018-05-17T03:11:15.416Z,26.40
2018-05-17T03:13:41.705Z,30.23
2018-05-17T03:16:09.026Z,36.87
2018-05-17T03:18:35.241Z,33.45
2018-05-17T03:21:01.419Z,28.40
2018-05-17T03:23:27.614Z,25.02
2018-05-17T03:25:55.513Z,30.33
2018-05-17T03:28:21.680Z,32.80
2018-05-17T03:30:47.861Z,37.28
2018-05-17T03:33:15.162Z,28.30
2018-05-17T03:35:41.329Z,32.63
2018-05-17T03:38:07.544Z,29.87
2018-05-17T03:40:33.730Z,26.52
2018-05-17T03:43:00.044Z,31.25
2018-05-17T03:45:26.226Z,28.07
2018-05-17T03:47:52.389Z,30.63
2018-05-17T03:50:18.594Z,29.23
2018-05-17T03:52:44.762Z,25.33
2018-05-17T03:55:12.458Z,24.23
2018-05-17T03:57:38.618Z,26.35
2018-05-17T04:00:04.909Z,24.30
2018-05-17T04:05:44.331Z,28.50
2018-05-17T04:08:10.555Z,22.63
2018-05-17T04:10:36.797Z,26.00
2018-05-17T04:13:03.043Z,19.73
2018-05-17T04:15:31.013Z,24.43
2018-05-17T04:17:57.179Z,28.20
2018-05-17T04:20:23.438Z,31.17
2018-05-17T04:22:49.783Z,27.20
2018-05-17T04:25:16.097Z,26.37
2018-05-17T04:27:42.337Z,26.87
2018-05-17T04:30:10.039Z,27.00
2018-05-17T04:32:36.329Z,25.63
2018-05-17T04:35:04.255Z,21.00
2018-05-17T04:37:30.528Z,27.90
2018-05-17T04:39:56.702Z,24.90
2018-05-17T04:42:22.875Z,23.13
2018-05-17T04:44:49.051Z,22.03
2018-05-17T04:47:15.376Z,24.33
2018-05-17T04:49:41.585Z,26.83
2018-05-17T04:52:07.747Z,21.20
2018-05-17T04:54:34.135Z,26.27
2018-05-17T04:57:00.939Z,23.77
2018-05-17T04:59:27.299Z,20.67
2018-05-17T05:01:53.923Z,26.20
2018-05-17T05:04:20.146Z,16.13
2018-05-17T05:06:47.452Z,23.43
2018-05-17T05:09:14.825Z,20.73
2018-05-17T05:11:41.787Z,25.70
2018-05-17T05:14:08.280Z,16.60
2018-05-17T05:16:35.863Z,18.23
2018-05-17T05:19:03.833Z,27.97
2018-05-17T05:21:30.093Z,26.10
2018-05-17T05:23:57.793Z,27.00
2018-05-17T05:26:23.999Z,23.40
2018-05-17T05:28:54.628Z,19.50
2018-05-17T05:31:23.100Z,20.97
2018-05-17T05:33:49.313Z,23.83
2018-05-17T05:36:15.752Z,22.77
2018-05-17T05:38:42.003Z,21.37
2018-05-17T05:41:08.199Z,16.30
2018-05-17T05:43:34.599Z,19.93
2018-05-17T05:46:01.816Z,16.97
2018-05-17T05:48:28.016Z,22.73
2018-05-17T05:50:54.218Z,20.67
2018-05-17T05:53:22.128Z,18.33
2018-05-17T05:55:48.318Z,17.40
2018-05-17T05:58:14.476Z,22.87
2018-05-17T06:00:41.809Z,22.40
2018-05-17T06:03:07.987Z,19.50
2018-05-17T06:05:35.324Z,15.23
2018-05-17T06:08:01.503Z,15.03
2018-05-17T06:10:28.391Z,19.73
2018-05-17T06:12:54.578Z,25.70
2018-05-17T06:15:21.862Z,15.53
2018-05-17T06:17:48.102Z,18.53
2018-05-17T06:20:15.990Z,17.70
2018-05-17T06:22:42.332Z,24.03
2018-05-17T06:25:08.543Z,12.47
2018-05-17T06:27:35.836Z,21.53
2018-05-17T06:30:03.798Z,22.73
2018-05-17T06:32:29.966Z,21.47
2018-05-17T06:34:56.189Z,22.60
2018-05-17T06:37:23.478Z,15.10
2018-05-17T06:39:49.683Z,19.90
2018-05-17T06:42:15.886Z,16.53
2018-05-17T06:44:42.075Z,26.97
2018-05-17T06:47:09.957Z,20.00
2018-05-17T06:49:37.299Z,19.10
2018-05-17T06:52:03.506Z,15.73
2018-05-17T06:54:29.938Z,21.63
2018-05-17T06:56:56.372Z,15.67
2018-05-17T06:59:22.449Z,15.57
2018-05-17T07:01:48.655Z,18.90
2018-05-17T07:04:14.837Z,19.03
2018-05-17T07:06:41.042Z,23.13
2018-05-17T07:09:07.218Z,24.57
2018-05-17T07:11:33.438Z,22.70
2018-05-17T07:13:59.648Z,21.17
2018-05-17T07:16:25.807Z,22.47
2018-05-17T07:18:52.042Z,28.83
2018-05-17T07:21:18.246Z,19.47
2018-05-17T07:23:46.131Z,17.80
2018-05-17T07:26:12.370Z,15.40
2018-05-17T07:28:38.533Z,21.37
2018-05-17T07:31:04.744Z,20.73
2018-05-17T07:33:30.910Z,17.37
2018-05-17T07:35:58.198Z,19.07
2018-05-17T07:38:24.430Z,18.90
2018-05-17T07:40:50.616Z,17.23
2018-05-17T07:43:16.808Z,16.50
2018-05-17T07:45:43.013Z,26.53
2018-05-17T07:48:09.223Z,24.43
2018-05-17T07:50:35.430Z,16.27
2018-05-17T07:53:01.605Z,16.70
2018-05-17T07:55:27.804Z,19.70
2018-05-17T07:57:55.753Z,14.43
2018-05-17T08:00:22.045Z,20.37
2018-05-17T08:02:48.182Z,16.77
2018-05-17T08:05:14.355Z,18.27
2018-05-17T08:07:40.575Z,18.63
2018-05-17T08:10:06.751Z,20.80
2018-05-17T08:12:32.934Z,18.05
2018-05-17T08:14:59.139Z,28.67
2018-05-17T08:17:25.331Z,20.97
2018-05-17T08:19:51.528Z,25.20
2018-05-17T08:22:17.699Z,20.27
2018-05-17T08:24:43.905Z,20.17
2018-05-17T08:27:10.102Z,15.77
2018-05-17T08:29:36.287Z,20.57
2018-05-17T08:32:02.482Z,21.60
2018-05-17T08:34:28.668Z,26.30
2018-05-17T08:36:54.851Z,20.70
2018-05-17T08:39:21.067Z,23.30
2018-05-17T08:41:48.371Z,20.53
2018-05-17T08:44:14.572Z,9.93
2018-05-17T08:46:40.835Z,23.97
2018-05-17T08:49:06.952Z,18.47
2018-05-17T08:51:34.255Z,14.47
2018-05-17T08:54:00.547Z,21.07
2018-05-17T08:56:27.936Z,14.77
2018-05-17T08:58:55.224Z,16.12
2018-05-17T09:01:21.393Z,16.80
2018-05-17T09:03:47.630Z,17.97
2018-05-17T09:06:13.882Z,16.17
2018-05-17T09:08:40.028Z,17.93
2018-05-17T09:11:06.218Z,23.67
2018-05-17T09:13:32.424Z,20.48
2018-05-17T09:15:58.624Z,21.33
2018-05-17T09:18:24.785Z,23.00
2018-05-17T09:20:50.970Z,20.30
2018-05-17T09:23:18.871Z,15.82
2018-05-17T09:25:45.040Z,17.40
2018-05-17T09:28:11.239Z,13.37
2018-05-17T09:30:37.453Z,12.50
2018-05-17T09:33:03.642Z,13.93
2018-05-17T09:35:29.899Z,14.63
2018-05-17T09:37:56.110Z,18.40
2018-05-17T09:40:22.300Z,17.47
2018-05-17T09:42:48.498Z,15.60
2018-05-17T09:45:14.691Z,16.42
2018-05-17T09:47:40.920Z,19.17
2018-05-17T09:50:07.103Z,14.47
2018-05-17T09:52:33.292Z,20.45
2018-05-17T09:54:59.523Z,16.00
2018-05-17T09:57:25.706Z,14.83
2018-05-17T09:59:52.993Z,17.80
2018-05-17T10:02:19.201Z,16.90
2018-05-17T10:04:45.403Z,16.95
2018-05-17T10:07:11.590Z,17.08
2018-05-17T10:09:37.762Z,21.85
2018-05-17T10:12:03.957Z,15.85
2018-05-17T10:14:30.160Z,16.87
2018-05-17T10:16:56.349Z,19.35
2018-05-17T10:19:22.529Z,11.52
2018-05-17T10:21:48.795Z,19.73
2018-05-17T10:24:16.641Z,20.67
2018-05-17T10:26:42.839Z,16.00
2018-05-17T10:29:09.011Z,17.55
2018-05-17T10:31:35.216Z,15.50
2018-05-17T10:34:01.403Z,16.65
2018-05-17T10:36:27.570Z,13.15
2018-05-17T10:38:53.762Z,15.48
2018-05-17T10:41:21.083Z,12.80
2018-05-17T10:43:47.287Z,15.38
2018-05-17T10:46:13.493Z,21.05
2018-05-17T10:48:39.667Z,11.88
2018-05-17T10:51:05.893Z,13.02
2018-05-17T10:53:33.180Z,21.45
2018-05-17T10:55:59.369Z,19.55
2018-05-17T10:58:25.565Z,23.00
2018-05-17T11:00:51.729Z,21.15
2018-05-17T11:03:17.935Z,22.85
2018-05-17T11:05:44.132Z,19.25
2018-05-17T11:08:11.462Z,19.02
2018-05-17T11:10:37.646Z,15.18
2018-05-17T11:13:03.842Z,17.27
2018-05-17T11:15:30.031Z,11.30
2018-05-17T11:17:56.208Z,16.33
2018-05-17T11:20:22.390Z,20.17
2018-05-17T11:22:48.561Z,10.52
2018-05-17T11:25:14.727Z,14.57
2018-05-17T11:27:41.007Z,15.70
2018-05-17T11:30:07.189Z,15.88
2018-05-17T11:32:34.491Z,15.57
2018-05-17T11:35:00.666Z,16.75
2018-05-17T11:37:26.837Z,13.15
2018-05-17T11:39:54.153Z,12.82
2018-05-17T11:42:20.331Z,15.75
2018-05-17T11:44:46.534Z,10.70
2018-05-17T11:47:12.707Z,13.27
2018-05-17T11:49:38.943Z,13.90
2018-05-17T11:52:05.282Z,13.02
2018-05-17T11:54:31.467Z,10.48
2018-05-17T11:56:59.383Z,18.98
2018-05-17T11:59:25.582Z,14.75
2018-05-17T12:01:52.498Z,14.55
2018-05-17T12:04:18.711Z,10.38
2018-05-17T12:06:44.999Z,11.73
2018-05-17T12:09:11.223Z,11.95
2018-05-17T12:11:37.446Z,12.93
2018-05-17T12:14:03.654Z,17.05
2018-05-17T12:16:29.839Z,18.45
2018-05-17T12:18:56.019Z,12.30
2018-05-17T12:21:23.354Z,15.85
2018-05-17T12:23:49.522Z,14.73
2018-05-17T12:26:16.823Z,15.35
2018-05-17T12:28:43.023Z,13.45
2018-05-17T12:31:09.199Z,16.30
2018-05-17T12:33:35.438Z,15.45
2018-05-17T12:36:01.608Z,13.88
2018-05-17T12:38:27.780Z,12.35
2018-05-17T12:40:53.987Z,18.62
2018-05-17T12:43:20.151Z,14.00
2018-05-17T12:45:46.345Z,14.70
2018-05-17T12:48:12.559Z,11.85
2018-05-17T12:50:39.862Z,12.30
2018-05-17T12:53:06.080Z,8.80
2018-05-17T12:55:32.322Z,15.15
2018-05-17T12:57:58.610Z,14.70
2018-05-17T13:00:24.826Z,13.40
2018-05-17T13:02:51.030Z,18.50
2018-05-17T13:05:22.788Z,11.55
2018-05-17T13:07:49.050Z,13.52
2018-05-17T13:10:16.346Z,14.32
2018-05-17T13:12:42.600Z,14.50
2018-05-17T13:15:08.801Z,19.58
2018-05-17T13:17:36.097Z,13.65
2018-05-17T13:20:02.392Z,13.95
2018-05-17T13:22:28.652Z,15.30
2018-05-17T13:24:55.752Z,12.20
2018-05-17T13:27:22.900Z,14.82
2018-05-17T13:29:49.110Z,16.55
2018-05-17T13:32:16.418Z,14.85
2018-05-17T13:34:42.592Z,14.20
2018-05-17T13:37:08.848Z,11.85
2018-05-17T13:39:35.002Z,13.75
2018-05-17T13:42:02.327Z,17.02
2018-05-17T13:44:28.547Z,13.48
2018-05-17T13:46:54.748Z,16.75
2018-05-17T13:49:22.055Z,15.85
2018-05-17T13:51:48.234Z,15.38
2018-05-17T13:54:14.449Z,17.75
2018-05-17T13:56:40.660Z,14.45
2018-05-17T13:59:06.851Z,16.95
2018-05-17T14:01:33.067Z,18.98
2018-05-17T14:03:59.256Z,20.42
2018-05-17T14:06:25.554Z,21.00
2018-05-17T14:08:51.812Z,17.35
2018-05-17T14:11:18.057Z,17.35
2018-05-17T14:13:44.355Z,21.33
2018-05-17T14:16:10.467Z,17.45
2018-05-17T14:18:37.766Z,21.33
2018-05-17T14:21:03.972Z,25.95
2018-05-17T14:23:31.281Z,15.25
2018-05-17T14:25:57.648Z,21.17
2018-05-17T14:28:23.950Z,28.02
2018-05-17T14:30:50.150Z,18.67
2018-05-17T14:33:16.331Z,21.17
2018-05-17T14:35:42.610Z,23.05
2018-05-17T14:38:08.823Z,20.30
2018-05-17T14:40:34.997Z,25.65
2018-05-17T14:43:01.239Z,23.27
2018-05-17T14:45:27.448Z,17.37
2018-05-17T14:47:53.785Z,23.70
2018-05-17T14:50:20.012Z,15.05
2018-05-17T14:52:47.902Z,15.88
2018-05-17T14:55:14.334Z,21.08
2018-05-17T14:57:41.235Z,22.05
2018-05-17T15:00:07.471Z,18.30
2018-05-17T15:02:33.676Z,18.42
2018-05-17T15:04:59.846Z,24.58
2018-05-17T15:07:26.083Z,19.42
2018-05-17T15:09:53.382Z,24.63
2018-05-17T15:12:19.707Z,20.02
2018-05-17T15:14:46.060Z,19.92
2018-05-17T15:17:12.304Z,20.90
2018-05-17T15:19:38.512Z,17.85
2018-05-17T15:22:04.702Z,20.20
2018-05-17T15:24:30.874Z,23.15
2018-05-17T15:26:58.194Z,22.98
2018-05-17T15:29:24.386Z,21.98
2018-05-17T15:31:52.314Z,23.08
2018-05-17T15:34:18.482Z,28.38
2018-05-17T15:36:44.655Z,23.52
2018-05-17T15:39:10.844Z,24.65
2018-05-17T15:41:37.080Z,25.98
2018-05-17T15:44:03.376Z,20.80
2018-05-17T15:46:30.739Z,22.70
2018-05-17T15:48:58.048Z,19.27
2018-05-17T15:51:24.281Z,25.65
2018-05-17T15:53:50.462Z,21.77
2018-05-17T15:56:16.651Z,28.62
2018-05-17T15:58:42.826Z,24.90
2018-05-17T16:01:08.993Z,22.40
2018-05-17T16:03:36.290Z,22.30
2018-05-17T16:06:02.592Z,20.58
2018-05-17T16:08:29.798Z,24.45
2018-05-17T16:10:56.076Z,22.83
2018-05-17T16:13:22.270Z,24.52
2018-05-17T16:15:48.466Z,25.98
2018-05-17T16:18:14.734Z,21.87
2018-05-17T16:20:40.927Z,20.50
2018-05-17T16:23:07.091Z,23.48
2018-05-17T16:25:33.286Z,24.55
2018-05-17T16:27:59.462Z,28.40
2018-05-17T16:30:25.652Z,22.67
2018-05-17T16:32:51.878Z,23.70
2018-05-17T16:35:19.178Z,26.90
2018-05-17T16:37:45.350Z,21.50
2018-05-17T16:40:11.544Z,24.77
2018-05-17T16:42:37.811Z,21.40
2018-05-17T16:45:03.974Z,21.20
2018-05-17T16:47:30.166Z,25.95
2018-05-17T16:49:57.459Z,29.35
2018-05-17T16:52:23.665Z,24.48
2018-05-17T16:54:51.334Z,21.17
2018-05-17T16:57:19.022Z,25.65
2018-05-17T16:59:46.729Z,25.45
2018-05-17T17:02:12.953Z,32.92
2018-05-17T17:04:39.230Z,25.70
2018-05-17T17:07:05.322Z,26.50
2018-05-17T17:09:32.659Z,19.98
2018-05-17T17:11:58.815Z,21.35
2018-05-17T17:14:24.986Z,28.70
2018-05-17T17:16:51.183Z,24.30
2018-05-17T17:19:17.372Z,19.45
2018-05-17T17:21:43.546Z,23.90
2018-05-17T17:24:10.783Z,20.45
2018-05-17T17:26:36.965Z,16.02
2018-05-17T17:29:03.358Z,22.80
2018-05-17T17:31:30.815Z,21.30
2018-05-17T17:33:58.129Z,22.60
2018-05-17T17:36:24.383Z,22.55
2018-05-17T17:38:50.603Z,16.42
2018-05-17T17:41:16.778Z,21.77
2018-05-17T17:43:42.966Z,19.62
2018-05-17T17:46:09.182Z,25.92
2018-05-17T17:48:35.410Z,24.05
2018-05-17T17:51:01.635Z,26.25
2018-05-17T17:53:27.846Z,15.98
2018-05-17T17:55:54.018Z,21.37
2018-05-17T17:58:20.796Z,19.98
2018-05-17T18:00:47.945Z,26.95
2018-05-17T18:03:14.262Z,23.60
2018-05-17T18:05:40.463Z,27.27
2018-05-17T18:08:08.406Z,17.52
2018-05-17T18:10:34.594Z,17.60
2018-05-17T18:13:00.772Z,18.73
2018-05-17T18:15:26.979Z,29.45
2018-05-17T18:17:53.181Z,18.52
2018-05-17T18:20:19.498Z,23.45
2018-05-17T18:22:45.688Z,18.77
2018-05-17T18:25:12.990Z,21.37
2018-05-17T18:27:39.220Z,20.35
2018-05-17T18:30:05.419Z,17.83
2018-05-17T18:32:31.607Z,18.52
2018-05-17T18:34:57.862Z,25.90
2018-05-17T18:37:24.047Z,18.92
2018-05-17T18:39:50.262Z,16.15
2018-05-17T18:42:16.439Z,15.65
2018-05-17T18:44:43.743Z,26.00
2018-05-17T18:47:10.085Z,13.70
2018-05-17T18:49:37.940Z,20.65
2018-05-17T18:52:05.283Z,22.37
2018-05-17T18:54:33.571Z,21.67
2018-05-17T18:57:00.777Z,15.40
2018-05-17T18:59:43.903Z,29.55
2018-05-17T19:02:10.347Z,18.08
2018-05-17T19:04:37.066Z,18.10
2018-05-17T19:07:04.771Z,19.05
2018-05-17T19:09:31.419Z,21.55
2018-05-17T19:11:58.148Z,22.05
2018-05-17T19:14:25.376Z,27.50
2018-05-17T19:16:53.248Z,19.17
2018-05-17T19:19:21.051Z,25.20
2018-05-17T19:21:48.347Z,22.70
2018-05-17T19:24:15.134Z,24.85
2018-05-17T19:26:42.977Z,19.92
2018-05-17T19:29:09.736Z,26.12
2018-05-17T19:31:37.780Z,67.30
2018-05-17T19:34:04.154Z,65.95
2018-05-17T19:36:30.330Z,27.85
2018-05-17T19:38:58.439Z,21.37
2018-05-17T19:41:24.752Z,26.30
2018-05-17T19:43:52.144Z,22.62
2018-05-17T19:46:18.420Z,27.55
2018-05-17T19:48:44.631Z,28.08
2018-05-17T19:51:10.889Z,27.30
2018-05-17T19:53:37.182Z,28.73
2018-05-17T19:56:04.506Z,14.70
2018-05-17T19:58:32.814Z,25.17
2018-05-17T20:00:59.095Z,17.30
2018-05-17T20:03:25.295Z,26.42
2018-05-17T20:05:51.465Z,19.10
2018-05-17T20:08:18.824Z,17.20
2018-05-17T20:10:45.120Z,20.33
2018-05-17T20:13:11.519Z,25.50
2018-05-17T20:15:38.865Z,19.83
2018-05-17T20:18:05.095Z,18.12
2018-05-17T20:20:31.294Z,26.75
2018-05-17T20:22:57.663Z,21.50
2018-05-17T20:25:23.912Z,20.17
2018-05-17T20:27:50.253Z,23.75
2018-05-17T20:30:16.495Z,20.75
2018-05-17T20:32:42.699Z,18.40
2018-05-17T20:35:08.919Z,20.48
2018-05-17T20:37:36.219Z,23.17
2018-05-17T20:40:02.463Z,31.48
2018-05-17T20:42:28.740Z,26.58
2018-05-17T20:44:54.859Z,24.15
2018-05-17T20:47:21.062Z,24.52
2018-05-17T20:49:47.248Z,23.08
2018-05-17T20:52:13.942Z,26.67
2018-05-17T20:54:40.479Z,20.25
2018-05-17T20:57:07.028Z,24.75
2018-05-17T20:59:35.777Z,25.80
2018-05-17T21:02:02.278Z,17.12
2018-05-17T21:04:30.306Z,18.42
2018-05-17T21:06:56.815Z,16.65
2018-05-17T21:09:23.821Z,14.05
2018-05-17T21:11:50.191Z,19.08
2018-05-17T21:14:16.881Z,24.23
2018-05-17T21:16:44.760Z,25.25
2018-05-17T21:19:12.083Z,22.37
2018-05-17T21:21:38.260Z,15.38
2018-05-17T21:24:04.556Z,19.05
2018-05-17T21:26:31.010Z,20.25
2018-05-17T21:28:57.475Z,24.35
2018-05-17T21:31:23.728Z,18.75
2018-05-17T21:33:49.961Z,25.10
2018-05-17T21:36:16.166Z,21.15
2018-05-17T21:38:42.338Z,16.83
2018-05-17T21:41:08.841Z,21.30
2018-05-17T21:43:35.006Z,24.75
2018-05-17T21:46:01.192Z,16.10
2018-05-17T21:48:27.391Z,19.80
2018-05-17T21:50:53.570Z,15.85
2018-05-17T21:53:19.771Z,21.60
2018-05-17T21:55:45.946Z,17.98
2018-05-17T21:58:12.127Z,20.30
2018-05-17T22:00:38.315Z,22.95
2018-05-17T22:03:04.502Z,22.30
2018-05-17T22:05:31.850Z,20.05
2018-05-17T22:07:58.038Z,20.10
2018-05-17T22:10:24.523Z,22.13
2018-05-17T22:12:50.719Z,16.33
2018-05-17T22:15:16.894Z,18.50
2018-05-17T22:17:43.110Z,23.98
2018-05-17T22:20:09.280Z,24.42
2018-05-17T22:22:35.479Z,19.60
2018-05-17T22:25:01.695Z,22.92
2018-05-17T22:27:29.598Z,23.45
2018-05-17T22:29:55.786Z,18.23
2018-05-17T22:32:21.973Z,20.88
2018-05-17T22:34:48.157Z,27.35
2018-05-17T22:37:14.334Z,18.95
2018-05-17T22:39:41.627Z,21.90
2018-05-17T22:42:07.867Z,23.17
2018-05-17T22:44:34.145Z,28.15
2018-05-17T22:47:00.350Z,21.75
2018-05-17T22:49:26.547Z,26.23
2018-05-17T22:51:52.980Z,21.65
2018-05-17T22:54:20.219Z,22.77
2018-05-17T22:56:58.490Z,22.15
2018-05-17T22:59:24.654Z,18.45
2018-05-17T23:01:52.609Z,19.73
2018-05-17T23:04:18.798Z,23.17
2018-05-17T23:06:45.011Z,21.15
2018-05-17T23:09:12.314Z,13.38
2018-05-17T23:11:38.498Z,16.77
2018-05-17T23:14:04.676Z,16.98
2018-05-17T23:16:30.864Z,19.07
2018-05-17T23:18:57.027Z,21.37
2018-05-17T23:21:23.227Z,25.35
2018-05-17T23:23:49.468Z,23.07
2018-05-17T23:26:15.677Z,19.08
2018-05-17T23:28:42.132Z,17.60
2018-05-17T23:31:08.398Z,21.08
2018-05-17T23:33:34.760Z,16.30
2018-05-17T23:36:00.969Z,26.57
2018-05-17T23:38:27.182Z,20.45
2018-05-17T23:41:15.550Z,21.87
2018-05-17T23:43:41.720Z,18.25
2018-05-17T23:46:07.922Z,29.60
2018-05-17T23:48:34.099Z,19.97
2018-05-17T23:51:00.285Z,17.05
2018-05-17T23:53:26.470Z,17.80
2018-05-17T23:55:52.654Z,22.13
2018-05-17T23:58:18.851Z,38.60
